Thunder radar more information blitzortung!


Radar de pluja more information rain snow radar


Visita la nostra xarxa de llocs de meteo:

Template documentation
and downloads

And another site



No particular awareness of the weather is required.    There are no Weather-warnings

Pagina Historial Weather Underground text

Diari Resum Octubre 29, 2017 Unitats:  Imperial    Mètric   Tant
« Previous Dia
SegĂźent Dia »
Diari Setmana Mensual Anual Personalitzada
  Maxima: Minima: Media:
Temperatura: TemperatureC °F 9.7 °F 16.2 °F
Punt de rosada: DewpointC °F 4.2 °F 7 °F
Humitat: Humidity % 42 % 55 %
Wind Speed: WindSpeedKMH mph 0.0 mph 4.9 mph
RĂ fegues de vent: WindSpeedGustKMH mph - -
Vent:- - SSE
Pression baro: PressurehPa in 1016.8 in -
Precipitacions: 0.0 in    
Historical Graphs
 
 
Dades de taula per Octubre 29, 2017
Temps Temperatura Punt de rosada Pression baro Vent Wind Speed RĂ fegues de vent Humitat Rainfall Rate (Hourly)
TemperatureC °F DewpointC °F PressurehPa in Calm     Humidity % HourlyPrecipMM in
00:00 13.6 °F 8.4 °F 1021.9 in ENE 3.7 mph 3.7 mph 71 % 0.0 in
00:05 13.6 °F 8.7 °F 1021.9 in East 2.3 mph 2.3 mph 72 % 0.0 in
00:10 13.5 °F 8.6 °F 1021.9 in East 3.7 mph   72 % 0.0 in
00:15 13.6 °F 8.7 °F 1021.9 in West 1.9 mph 1.9 mph 72 % 0.0 in
00:20 13.5 °F 8.6 °F 1021.9 in WNW 1.9 mph   72 % 0.0 in
00:25 13.4 °F 8.7 °F 1020.9 in Calm     73 % 0.0 in
00:30 13.2 °F 8.3 °F 1020.9 in SSE 3.7 mph 3.7 mph 72 % 0.0 in
00:36 13.1 °F 8.4 °F 1020.9 in NNE 3.7 mph 3.7 mph 73 % 0.0 in
00:40 10.4 °F 5.9 °F 1021.9 in Calm   3.2 mph 74 % 0.0 in
00:41 13.0 °F 8.3 °F 1020.9 in Calm     73 % 0.0 in
00:46 12.9 °F 8.4 °F 1020.9 in Calm     74 % 0.0 in
00:50 10.4 °F 5.9 °F 1021.9 in WSW 1.6 mph 3.2 mph 74 % 0.0 in
00:51 12.7 °F 8.2 °F 1020.9 in NE 1.9 mph   74 % 0.0 in
00:56 12.6 °F 8.3 °F 1021.9 in Calm     75 % 0.0 in
01:00 10.8 °F 6.3 °F 1021.9 in NNE 3.2 mph 4.8 mph 74 % 0.0 in
01:10 10.6 °F 6.2 °F 1021.9 in Calm   3.2 mph 74 % 0.0 in
01:20 10.5 °F 6.1 °F 1022.9 in West 1.6 mph 3.2 mph 74 % 0.0 in
01:30 10.4 °F 5.9 °F 1021.9 in WNW 1.6 mph 3.2 mph 74 % 0.0 in
01:40 10.4 °F 5.9 °F 1021.9 in NNW 1.6 mph 3.2 mph 74 % 0.0 in
01:50 10.3 °F 5.9 °F 1021.9 in North 1.6 mph 3.2 mph 74 % 0.0 in
02:00 10.0 °F 5.6 °F 1021.9 in NNW 1.6 mph 1.6 mph 74 % 0.0 in
02:10 9.9 °F 5.5 °F 1021.9 in West 1.6 mph 3.2 mph 74 % 0.0 in
02:20 9.7 °F 5.5 °F 1021.9 in West 1.6 mph 3.2 mph 75 % 0.0 in
02:30 9.7 °F 5.5 °F 1021.9 in Calm   3.2 mph 75 % 0.0 in
02:40 9.7 °F 5.7 °F 1021.9 in Calm     76 % 0.0 in
02:50 10.0 °F 5.9 °F 1021.9 in Calm     76 % 0.0 in
02:00 10.4 °F 6.3 °F 1022.9 in Calm   1.6 mph 76 % 0.0 in
02:10 10.7 °F 6.7 °F 1022.9 in Calm     76 % 0.0 in
02:20 10.8 °F 6.6 °F 1021.9 in Calm   3.2 mph 75 % 0.0 in
02:30 11.5 °F 7.2 °F 1022.9 in Calm   1.6 mph 75 % 0.0 in
02:40 11.2 °F 6.7 °F 1022.9 in SW 1.6 mph 3.2 mph 74 % 0.0 in
02:50 11.6 °F 7.1 °F 1022.9 in SW 3.2 mph 3.2 mph 74 % 0.0 in
03:00 12.4 °F 7.7 °F 1022.9 in SSW 1.6 mph 3.2 mph 73 % 0.0 in
03:10 12.4 °F 7.5 °F 1022.9 in SSW 1.6 mph 3.2 mph 72 % 0.0 in
03:20 12.7 °F 7.6 °F 1022.9 in SW 1.6 mph 3.2 mph 71 % 0.0 in
03:30 12.9 °F 7.6 °F 1022.9 in SSW 3.2 mph 4.8 mph 70 % 0.0 in
03:40 13.8 °F 8.2 °F 1022.9 in SSW 1.6 mph 4.8 mph 69 % 0.0 in
03:50 14.0 °F 7.9 °F 1022.9 in South 1.6 mph 3.2 mph 67 % 0.0 in
04:00 13.8 °F 7.8 °F 1021.9 in ESE 1.6 mph 3.2 mph 67 % 0.0 in
10:04 14.4 °F 8.1 °F 1021.9 in ENE 6.4 mph 6.4 mph 66 % 0.0 in
10:05 14.4 °F 8.1 °F 1021.9 in ENE 6.4 mph 6.4 mph 66 % 0.0 in
10:10 14.4 °F 8.1 °F 1021.9 in NE 11.1 mph 11.1 mph 66 % 0.0 in
10:15 14.2 °F 7.9 °F 1021.9 in NNE 9.3 mph 9.3 mph 66 % 0.0 in
10:20 14.3 °F 7.8 °F 1021.9 in ENE 5.6 mph 5.6 mph 65 % 0.0 in
10:25 14.5 °F 8.0 °F 1021.9 in NE 7.4 mph 7.4 mph 65 % 0.0 in
10:30 14.8 °F 8.3 °F 1021.9 in NE 2.6 mph   65 % 0.0 in
10:35 15.0 °F 8.4 °F 1021.9 in NE 7.4 mph 7.4 mph 65 % 0.0 in
10:40 14.9 °F 8.2 °F 1021.9 in NNE 7.4 mph 7.4 mph 64 % 0.0 in
10:45 15.1 °F 8.3 °F 1021.9 in NNE 3.7 mph 3.7 mph 64 % 0.0 in
10:50 15.4 °F 8.8 °F 1021.9 in North 3.7 mph 3.7 mph 65 % 0.0 in
10:55 15.6 °F 8.8 °F 1020.9 in NNE 7.4 mph 7.4 mph 64 % 0.0 in
11:00 15.8 °F 9.0 °F 1020.9 in ENE 7.4 mph 7.4 mph 64 % 0.0 in
11:05 16.0 °F 9.2 °F 1020.9 in North 3.9 mph 3.9 mph 64 % 0.0 in
11:10 15.9 °F 8.8 °F 1021.9 in NE 9.3 mph 9.3 mph 63 % 0.0 in
11:15 15.9 °F 8.6 °F 1021.9 in NE 9.3 mph 9.3 mph 62 % 0.0 in
11:20 16.3 °F 9.2 °F 1021.9 in NE 7.4 mph 7.4 mph 63 % 0.0 in
11:25 16.4 °F 9.1 °F 1021.9 in NNE 7.4 mph 7.4 mph 62 % 0.0 in
11:30 16.7 °F 9.4 °F 1021.9 in NNE 5.6 mph 5.6 mph 62 % 0.0 in
11:35 16.8 °F 9.5 °F 1021.9 in NNE 11.1 mph 11.1 mph 62 % 0.0 in
11:40 16.6 °F 9.1 °F 1020.9 in NNE 7.4 mph 7.4 mph 61 % 0.0 in
11:45 16.8 °F 9.2 °F 1020.9 in NNE 7.4 mph 7.4 mph 61 % 0.0 in
11:50 17.0 °F 9.2 °F 1020.9 in ENE 5.6 mph 5.6 mph 60 % 0.0 in
11:55 17.1 °F 9.0 °F 1020.9 in NNE 7.4 mph 7.4 mph 59 % 0.0 in
12:00 17.1 °F 9.0 °F 1020.9 in ENE 9.3 mph 9.3 mph 59 % 0.0 in
12:05 17.3 °F 9.2 °F 1020.9 in NNW 7.4 mph 7.4 mph 59 % 0.0 in
12:10 17.3 °F 8.9 °F 1020.9 in NE 9.3 mph 9.3 mph 58 % 0.0 in
12:15 17.3 °F 8.9 °F 1020.9 in NNE 11.1 mph 11.1 mph 58 % 0.0 in
12:20 17.7 °F 9.3 °F 1020.9 in NNE 9.3 mph 9.3 mph 58 % 0.0 in
12:25 17.8 °F 9.2 °F 1019.9 in NNE 7.4 mph 7.4 mph 57 % 0.0 in
12:30 18.2 °F 9.8 °F 1019.9 in NNE 9.7 mph 9.7 mph 58 % 0.0 in
12:35 18.2 °F 9.6 °F 1019.9 in NNE 5.6 mph 5.6 mph 57 % 0.0 in
12:40 18.4 °F 9.7 °F 1019.9 in NNE 5.6 mph 5.6 mph 57 % 0.0 in
12:45 18.7 °F 10.0 °F 1019.9 in NE 5.6 mph 5.6 mph 57 % 0.0 in
12:50 18.8 °F 9.8 °F 1019.9 in NNE 5.6 mph 5.6 mph 56 % 0.0 in
12:55 19.0 °F 9.8 °F 1019.9 in ENE 7.4 mph 7.4 mph 55 % 0.0 in
13:00 19.1 °F 9.8 °F 1019.9 in NNE 5.6 mph 5.6 mph 55 % 0.0 in
13:05 19.3 °F 10.1 °F 1019.9 in ENE 5.6 mph 5.6 mph 55 % 0.0 in
13:10 19.5 °F 9.9 °F 1019.9 in NE 3.7 mph 3.9 mph 54 % 0.0 in
13:15 19.6 °F 10.3 °F 1019.9 in ENE 7.9 mph 7.9 mph 55 % 0.0 in
13:20 19.4 °F 9.8 °F 1019.9 in NNW 7.4 mph 7.4 mph 54 % 0.0 in
13:25 19.5 °F 9.9 °F 1019.9 in NNE 8.7 mph 8.7 mph 54 % 0.0 in
13:30 19.3 °F 9.5 °F 1019.9 in NNE 11.1 mph 11.1 mph 53 % 0.0 in
13:35 19.4 °F 9.6 °F 1019.9 in WNW 9.3 mph 9.3 mph 53 % 0.0 in
13:40 19.6 °F 9.8 °F 1019.9 in NNE 7.4 mph 7.4 mph 53 % 0.0 in
13:45 19.6 °F 9.8 °F 1019.9 in ENE 6.4 mph 6.4 mph 53 % 0.0 in
13:50 19.6 °F 9.8 °F 1019.9 in NW 7.4 mph 7.4 mph 53 % 0.0 in
13:55 19.8 °F 9.9 °F 1018.8 in NNE 3.7 mph 3.7 mph 53 % 0.0 in
14:00 20.0 °F 9.8 °F 1018.8 in SE 3.7 mph 3.7 mph 52 % 0.0 in
14:05 20.7 °F 10.5 °F 1018.8 in WSW 6.1 mph 6.1 mph 52 % 0.0 in
14:10 21.1 °F 10.3 °F 1018.8 in WSW 11.9 mph 11.9 mph 50 % 0.0 in
14:15 21.2 °F 10.1 °F 1018.8 in SW 11.1 mph 11.1 mph 49 % 0.0 in
14:20 21.5 °F 10.3 °F 1018.8 in SW 5.6 mph 5.6 mph 49 % 0.0 in
14:25 21.6 °F 10.1 °F 1018.8 in West 11.1 mph 11.1 mph 48 % 0.0 in
14:30 21.5 °F 10.0 °F 1018.8 in WSW 11.1 mph 11.1 mph 48 % 0.0 in
14:35 21.7 °F 9.9 °F 1018.8 in West 7.9 mph 7.9 mph 47 % 0.0 in
14:40 21.8 °F 10.0 °F 1017.8 in WSW 7.9 mph 7.9 mph 47 % 0.0 in
14:45 21.7 °F 9.2 °F 1017.8 in WSW 13.0 mph 13.0 mph 45 % 0.0 in
14:50 21.7 °F 9.2 °F 1017.8 in WSW 11.1 mph 11.1 mph 45 % 0.0 in
14:55 21.6 °F 9.2 °F 1017.8 in NW 11.1 mph 11.1 mph 45 % 0.0 in
15:00 21.8 °F 9.3 °F 1017.8 in WNW 7.4 mph 7.4 mph 45 % 0.0 in
15:05 21.8 °F 9.3 °F 1017.8 in SW 6.9 mph 6.9 mph 45 % 0.0 in
15:15 21.7 °F 8.9 °F 1017.8 in West 5.6 mph 5.6 mph 44 % 0.0 in
15:20 21.5 °F 8.7 °F 1017.8 in West 7.4 mph 7.4 mph 44 % 0.0 in
15:25 21.9 °F 9.1 °F 1017.8 in West 3.7 mph 3.7 mph 44 % 0.0 in
15:30 21.9 °F 9.4 °F 1017.8 in WSW 8.7 mph 8.7 mph 45 % 0.0 in
15:35 21.9 °F 9.1 °F 1017.8 in WSW 9.3 mph 9.3 mph 44 % 0.0 in
15:40 22.1 °F 9.3 °F 1016.8 in SW 7.4 mph 7.4 mph 44 % 0.0 in
15:45 22.1 °F 9.3 °F 1016.8 in West 7.4 mph 7.4 mph 44 % 0.0 in
15:50 22.0 °F 9.2 °F 1016.8 in West 5.8 mph 5.8 mph 44 % 0.0 in
15:55 21.9 °F 9.1 °F 1017.8 in West 7.4 mph 7.4 mph 44 % 0.0 in
16:00 21.9 °F 9.1 °F 1017.8 in West 7.4 mph 7.4 mph 44 % 0.0 in
16:05 21.7 °F 8.6 °F 1017.8 in WNW 7.4 mph 7.4 mph 43 % 0.0 in
16:10 21.8 °F 8.7 °F 1017.8 in West 5.6 mph 5.6 mph 43 % 0.0 in
16:15 21.5 °F 8.4 °F 1017.8 in West 6.9 mph 6.9 mph 43 % 0.0 in
16:20 21.3 °F 7.9 °F 1017.8 in West 5.6 mph 5.6 mph 42 % 0.0 in
16:25 21.3 °F 7.9 °F 1017.8 in West 14.8 mph 14.8 mph 42 % 0.0 in
16:30 21.2 °F 7.8 °F 1017.8 in West 9.3 mph 9.3 mph 42 % 0.0 in
16:35 21.1 °F 7.7 °F 1017.8 in NNW 9.3 mph 9.3 mph 42 % 0.0 in
16:40 21.0 °F 7.6 °F 1018.8 in NW 5.6 mph 5.6 mph 42 % 0.0 in
16:45 20.7 °F 7.3 °F 1018.8 in WNW 3.7 mph 3.7 mph 42 % 0.0 in
16:50 20.7 °F 7.3 °F 1018.8 in WNW 7.4 mph 7.4 mph 42 % 0.0 in
16:55 20.6 °F 7.6 °F 1017.8 in WNW 3.7 mph 3.7 mph 43 % 0.0 in
17:00 20.5 °F 7.5 °F 1017.8 in SSW 6.9 mph 6.9 mph 43 % 0.0 in
17:05 20.4 °F 7.1 °F 1017.8 in SW 3.7 mph 3.7 mph 42 % 0.0 in
17:10 20.3 °F 7.3 °F 1016.8 in SW 3.7 mph 3.7 mph 43 % 0.0 in
17:15 20.1 °F 6.8 °F 1016.8 in WSW 7.4 mph 7.4 mph 42 % 0.0 in
17:20 19.8 °F 6.5 °F 1016.8 in West 5.8 mph 5.8 mph 42 % 0.0 in
17:21 19.8 °F 6.5 °F 1016.8 in West 5.8 mph 5.8 mph 42 % 0.0 in
17:26 19.7 °F 6.4 °F 1017.8 in WSW 3.9 mph 3.9 mph 42 % 0.0 in
17:31 19.5 °F 6.2 °F 1017.8 in West 5.8 mph 5.8 mph 42 % 0.0 in
17:36 19.1 °F 5.9 °F 1017.8 in West 7.4 mph 7.4 mph 42 % 0.0 in
17:41 18.9 °F 5.7 °F 1017.8 in WNW 9.3 mph 9.3 mph 42 % 0.0 in
17:46 18.7 °F 5.5 °F 1017.8 in SW 9.3 mph 9.3 mph 42 % 0.0 in
17:51 18.4 °F 5.2 °F 1017.8 in West 5.6 mph 5.6 mph 42 % 0.0 in
17:56 18.2 °F 5.1 °F 1017.8 in West 7.4 mph 7.4 mph 42 % 0.0 in
18:01 18.1 °F 5.0 °F 1017.8 in WNW 5.8 mph 5.8 mph 42 % 0.0 in
18:06 17.9 °F 5.1 °F 1017.8 in WSW 9.3 mph 9.3 mph 43 % 0.0 in
18:11 17.7 °F 4.9 °F 1017.8 in SSE 5.6 mph 5.6 mph 43 % 0.0 in
18:16 17.5 °F 4.8 °F 1017.8 in NW 7.4 mph 7.4 mph 43 % 0.0 in
18:21 17.4 °F 5.0 °F 1017.8 in WSW 9.3 mph 9.3 mph 44 % 0.0 in
18:26 17.3 °F 4.6 °F 1017.8 in West 9.3 mph 9.3 mph 43 % 0.0 in
18:31 17.2 °F 4.5 °F 1017.8 in ENE 4.2 mph   43 % 0.0 in
18:36 17.1 °F 4.7 °F 1017.8 in NW 3.7 mph 3.7 mph 44 % 0.0 in
18:41 17.0 °F 4.7 °F 1016.8 in WNW 7.4 mph 7.4 mph 44 % 0.0 in
18:46 16.9 °F 4.9 °F 1016.8 in West 3.7 mph 3.7 mph 45 % 0.0 in
18:51 16.7 °F 4.7 °F 1016.8 in West 3.7 mph 3.7 mph 45 % 0.0 in
18:56 16.6 °F 4.6 °F 1016.8 in West 2.6 mph 2.6 mph 45 % 0.0 in
19:01 16.5 °F 4.5 °F 1016.8 in Calm     45 % 0.0 in
19:06 16.3 °F 4.7 °F 1016.8 in SW 3.7 mph 3.7 mph 46 % 0.0 in
19:11 16.3 °F 4.7 °F 1016.8 in WNW 1.9 mph 1.9 mph 46 % 0.0 in
19:16 16.2 °F 4.6 °F 1016.8 in NW 2.3 mph 2.3 mph 46 % 0.0 in
19:21 16.2 °F 4.6 °F 1016.8 in West 3.7 mph 3.7 mph 46 % 0.0 in
19:26 16.1 °F 4.4 °F 1016.8 in WSW 5.6 mph 5.6 mph 46 % 0.0 in
19:31 16.1 °F 4.8 °F 1016.8 in NNW 3.7 mph 3.7 mph 47 % 0.0 in
19:36 16.0 °F 4.7 °F 1016.8 in NW 7.4 mph 7.4 mph 47 % 0.0 in
19:41 16.0 °F 4.7 °F 1017.8 in North 2.6 mph 2.6 mph 47 % 0.0 in
19:46 16.0 °F 4.7 °F 1017.8 in North 3.7 mph 3.7 mph 47 % 0.0 in
19:51 16.0 °F 4.7 °F 1017.8 in NE 5.8 mph 5.8 mph 47 % 0.0 in
19:56 16.2 °F 4.9 °F 1017.8 in ENE 5.6 mph 5.6 mph 47 % 0.0 in
20:01 16.0 °F 5.0 °F 1017.8 in NNE 7.4 mph 7.4 mph 48 % 0.0 in
20:06 15.9 °F 4.9 °F 1017.8 in NE 9.3 mph 9.3 mph 48 % 0.0 in
20:11 15.7 °F 4.7 °F 1017.8 in ENE 3.7 mph 3.7 mph 48 % 0.0 in
20:16 15.4 °F 4.7 °F 1017.8 in NNE 4.2 mph 4.2 mph 49 % 0.0 in
20:21 15.4 °F 4.7 °F 1017.8 in NNE 5.6 mph 5.6 mph 49 % 0.0 in
20:26 15.2 °F 4.6 °F 1017.8 in NE 4.2 mph 4.2 mph 49 % 0.0 in
20:31 15.1 °F 4.7 °F 1017.8 in WNW 2.3 mph 2.3 mph 50 % 0.0 in
20:36 15.0 °F 4.7 °F 1017.8 in NNE 3.7 mph 3.7 mph 50 % 0.0 in
20:41 14.9 °F 4.6 °F 1017.8 in Calm     50 % 0.0 in
20:46 14.8 °F 4.4 °F 1017.8 in NNE 5.6 mph 5.6 mph 50 % 0.0 in
20:51 14.6 °F 4.6 °F 1017.8 in Calm     51 % 0.0 in
20:56 14.6 °F 4.6 °F 1017.8 in NNE 5.6 mph 5.6 mph 51 % 0.0 in
21:01 14.6 °F 4.6 °F 1017.8 in WNW 3.7 mph 3.7 mph 51 % 0.0 in
21:06 14.5 °F 4.5 °F 1017.8 in NNE 4.2 mph 4.2 mph 51 % 0.0 in
21:11 14.5 °F 4.5 °F 1017.8 in NNE 3.7 mph 3.7 mph 51 % 0.0 in
21:16 14.4 °F 4.7 °F 1017.8 in NNE 5.6 mph 5.6 mph 52 % 0.0 in
21:21 14.4 °F 4.7 °F 1017.8 in NNE 4.7 mph 4.7 mph 52 % 0.0 in
21:26 14.5 °F 4.8 °F 1017.8 in NNE 7.4 mph 7.4 mph 52 % 0.0 in
21:31 14.4 °F 4.7 °F 1017.8 in NNE 3.2 mph 3.2 mph 52 % 0.0 in
21:36 14.3 °F 4.6 °F 1017.8 in NNE 5.6 mph 5.6 mph 52 % 0.0 in
21:41 14.3 °F 4.6 °F 1017.8 in NNE 3.7 mph 3.7 mph 52 % 0.0 in
21:46 14.2 °F 4.7 °F 1017.8 in NNE 2.3 mph 2.3 mph 53 % 0.0 in
21:51 14.1 °F 4.7 °F 1017.8 in Calm     53 % 0.0 in
21:56 14.0 °F 4.6 °F 1017.8 in Calm     53 % 0.0 in
22:01 13.9 °F 4.4 °F 1017.8 in NW 1.9 mph 1.9 mph 53 % 0.0 in
22:06 13.9 °F 4.4 °F 1017.8 in NE 3.7 mph 3.7 mph 53 % 0.0 in
22:11 13.8 °F 4.4 °F 1017.8 in North 3.2 mph 3.2 mph 53 % 0.0 in
22:16 13.7 °F 4.6 °F 1017.8 in NNE 1.9 mph   54 % 0.0 in
22:21 13.6 °F 4.4 °F 1017.8 in Calm     54 % 0.0 in
22:26 13.5 °F 4.4 °F 1017.8 in North 1.9 mph   54 % 0.0 in
22:31 13.4 °F 4.3 °F 1017.8 in WNW 1.9 mph   54 % 0.0 in
22:36 13.3 °F 4.2 °F 1017.8 in WNW 1.9 mph   54 % 0.0 in
22:41 13.3 °F 4.4 °F 1017.8 in NNE 3.5 mph   55 % 0.0 in
22:46 13.2 °F 4.3 °F 1017.8 in NNW 1.9 mph 1.9 mph 55 % 0.0 in
22:51 13.3 °F 4.4 °F 1017.8 in East 3.9 mph 3.9 mph 55 % 0.0 in
22:56 13.3 °F 4.4 °F 1017.8 in WSW 5.6 mph 5.6 mph 55 % 0.0 in
23:01 13.4 °F 4.6 °F 1017.8 in NNW 3.9 mph 3.9 mph 55 % 0.0 in
23:06 13.6 °F 4.7 °F 1017.8 in West 1.9 mph 1.9 mph 55 % 0.0 in
23:11 13.6 °F 4.7 °F 1017.8 in Calm     55 % 0.0 in
23:16 13.6 °F 4.7 °F 1017.8 in Calm     55 % 0.0 in
23:21 13.6 °F 4.7 °F 1017.8 in WSW 1.9 mph   55 % 0.0 in
23:26 13.6 °F 4.7 °F 1016.8 in Calm     55 % 0.0 in
23:31 13.6 °F 4.7 °F 1016.8 in Calm     55 % 0.0 in
23:36 13.5 °F 4.6 °F 1016.8 in North 2.3 mph 2.3 mph 55 % 0.0 in
23:41 13.5 °F 4.6 °F 1016.8 in Calm     55 % 0.0 in
23:46 13.5 °F 4.6 °F 1016.8 in NNE 3.7 mph 3.7 mph 55 % 0.0 in
23:51 13.4 °F 4.6 °F 1016.8 in NNE 1.9 mph   55 % 0.0 in
23:56 13.2 °F 4.6 °F 1016.8 in North 3.7 mph 3.7 mph 56 % 0.0 in
Meteo Sesrovires
Elogis d' Weather Underground - 2 mb

Guio original per  Jim McMurry - jmcmurry@mwt.net Adaptat per a la plantilla per  Wim van der Kuil - Leuven-Template.eu

Trobareu la nostra informacio del temps tambe a:

Weather Underground

AWEKAS